sensor_id;sensor_type;location;lat;lon;timestamp;temperature;humidity
67165;SHT31;54093;50.014;19.984;2023-12-20T00:02:59;5.92;56.21
67165;SHT31;54093;50.014;19.984;2023-12-20T00:12:20;5.96;55.49
67165;SHT31;54093;50.014;19.984;2023-12-20T00:21:41;5.90;55.43
67165;SHT31;54093;50.014;19.984;2023-12-20T00:31:03;5.89;55.90
67165;SHT31;54093;50.014;19.984;2023-12-20T00:40:24;5.87;55.78
67165;SHT31;54093;50.014;19.984;2023-12-20T00:49:45;5.89;55.42
67165;SHT31;54093;50.014;19.984;2023-12-20T00:59:06;5.90;55.82
67165;SHT31;54093;50.014;19.984;2023-12-20T01:08:27;5.85;56.19
67165;SHT31;54093;50.014;19.984;2023-12-20T01:17:48;5.85;56.39
67165;SHT31;54093;50.014;19.984;2023-12-20T01:27:10;5.79;56.54
67165;SHT31;54093;50.014;19.984;2023-12-20T01:36:31;5.70;57.02
67165;SHT31;54093;50.014;19.984;2023-12-20T01:45:52;5.66;56.78
67165;SHT31;54093;50.014;19.984;2023-12-20T01:55:13;5.58;56.94
67165;SHT31;54093;50.014;19.984;2023-12-20T02:04:36;5.52;57.48
67165;SHT31;54093;50.014;19.984;2023-12-20T02:13:57;5.49;56.85
67165;SHT31;54093;50.014;19.984;2023-12-20T02:23:18;5.42;57.50
67165;SHT31;54093;50.014;19.984;2023-12-20T02:32:39;5.35;57.08
67165;SHT31;54093;50.014;19.984;2023-12-20T02:42:00;5.34;56.61
67165;SHT31;54093;50.014;19.984;2023-12-20T02:51:21;5.34;56.03
67165;SHT31;54093;50.014;19.984;2023-12-20T03:00:42;5.35;56.51
67165;SHT31;54093;50.014;19.984;2023-12-20T03:10:03;5.35;54.83
67165;SHT31;54093;50.014;19.984;2023-12-20T03:19:24;5.39;54.41
67165;SHT31;54093;50.014;19.984;2023-12-20T03:28:45;5.52;53.04
67165;SHT31;54093;50.014;19.984;2023-12-20T03:38:07;5.45;56.81
67165;SHT31;54093;50.014;19.984;2023-12-20T03:47:28;5.66;52.29
67165;SHT31;54093;50.014;19.984;2023-12-20T03:56:49;5.85;53.61
67165;SHT31;54093;50.014;19.984;2023-12-20T04:06:10;5.92;54.83
67165;SHT31;54093;50.014;19.984;2023-12-20T04:15:31;6.30;50.78
67165;SHT31;54093;50.014;19.984;2023-12-20T04:24:52;6.64;50.10
67165;SHT31;54093;50.014;19.984;2023-12-20T04:34:13;6.59;49.82
67165;SHT31;54093;50.014;19.984;2023-12-20T04:43:34;6.55;51.88
67165;SHT31;54093;50.014;19.984;2023-12-20T04:52:55;6.40;52.60
67165;SHT31;54093;50.014;19.984;2023-12-20T05:02:16;6.49;52.96
67165;SHT31;54093;50.014;19.984;2023-12-20T05:11:37;6.56;55.89
67165;SHT31;54093;50.014;19.984;2023-12-20T05:20:58;6.56;58.83
67165;SHT31;54093;50.014;19.984;2023-12-20T05:30:19;6.45;61.47
67165;SHT31;54093;50.014;19.984;2023-12-20T05:39:40;6.41;64.24
67165;SHT31;54093;50.014;19.984;2023-12-20T05:49:01;6.27;66.73
67165;SHT31;54093;50.014;19.984;2023-12-20T05:58:23;6.10;68.60
67165;SHT31;54093;50.014;19.984;2023-12-20T06:07:45;6.09;69.87
67165;SHT31;54093;50.014;19.984;2023-12-20T06:17:07;5.96;71.29
67165;SHT31;54093;50.014;19.984;2023-12-20T06:26:28;5.86;72.08
67165;SHT31;54093;50.014;19.984;2023-12-20T06:35:50;5.83;73.63
67165;SHT31;54093;50.014;19.984;2023-12-20T06:45:11;5.76;74.52
67165;SHT31;54093;50.014;19.984;2023-12-20T06:54:32;5.66;75.62
67165;SHT31;54093;50.014;19.984;2023-12-20T07:03:55;5.59;76.33
67165;SHT31;54093;50.014;19.984;2023-12-20T07:13:16;5.52;76.67
67165;SHT31;54093;50.014;19.984;2023-12-20T07:22:37;5.49;77.12
67165;SHT31;54093;50.014;19.984;2023-12-20T07:31:58;5.47;77.90
67165;SHT31;54093;50.014;19.984;2023-12-20T07:41:19;5.32;78.69
67165;SHT31;54093;50.014;19.984;2023-12-20T07:50:42;5.38;78.80
67165;SHT31;54093;50.014;19.984;2023-12-20T08:00:04;5.41;79.09
67165;SHT31;54093;50.014;19.984;2023-12-20T08:09:26;5.35;79.41
67165;SHT31;54093;50.014;19.984;2023-12-20T08:18:47;5.32;79.78
67165;SHT31;54093;50.014;19.984;2023-12-20T08:28:09;5.31;79.74
67165;SHT31;54093;50.014;19.984;2023-12-20T08:37:31;5.27;80.22
67165;SHT31;54093;50.014;19.984;2023-12-20T08:46:52;5.26;80.47
67165;SHT31;54093;50.014;19.984;2023-12-20T08:56:14;5.21;80.67
67165;SHT31;54093;50.014;19.984;2023-12-20T09:05:35;5.23;80.63
67165;SHT31;54093;50.014;19.984;2023-12-20T09:14:56;5.23;80.44
67165;SHT31;54093;50.014;19.984;2023-12-20T09:24:17;5.23;80.63
67165;SHT31;54093;50.014;19.984;2023-12-20T09:33:38;5.14;81.35
67165;SHT31;54093;50.014;19.984;2023-12-20T09:43:19;5.13;80.99
67165;SHT31;54093;50.014;19.984;2023-12-20T09:52:41;5.11;81.58
67165;SHT31;54093;50.014;19.984;2023-12-20T10:02:05;5.10;81.56
67165;SHT31;54093;50.014;19.984;2023-12-20T10:11:29;5.11;81.88
67165;SHT31;54093;50.014;19.984;2023-12-20T10:20:50;5.16;81.33
67165;SHT31;54093;50.014;19.984;2023-12-20T10:30:12;4.93;82.28
67165;SHT31;54093;50.014;19.984;2023-12-20T10:39:33;4.96;81.63
67165;SHT31;54093;50.014;19.984;2023-12-20T10:48:56;4.91;81.12
67165;SHT31;54093;50.014;19.984;2023-12-20T10:58:20;4.89;81.49
67165;SHT31;54093;50.014;19.984;2023-12-20T11:17:24;4.84;82.91
67165;SHT31;54093;50.014;19.984;2023-12-20T11:26:47;4.91;82.57
67165;SHT31;54093;50.014;19.984;2023-12-20T11:36:18;4.90;83.07
67165;SHT31;54093;50.014;19.984;2023-12-20T11:45:49;5.06;82.47
67165;SHT31;54093;50.014;19.984;2023-12-20T11:55:10;5.03;83.06
67165;SHT31;54093;50.014;19.984;2023-12-20T12:04:32;5.04;82.36
67165;SHT31;54093;50.014;19.984;2023-12-20T12:13:53;4.97;82.19
67165;SHT31;54093;50.014;19.984;2023-12-20T12:23:14;4.98;82.29
67165;SHT31;54093;50.014;19.984;2023-12-20T12:32:36;4.94;82.18
67165;SHT31;54093;50.014;19.984;2023-12-20T12:41:57;4.97;82.36
67165;SHT31;54093;50.014;19.984;2023-12-20T12:51:18;4.97;82.71
67165;SHT31;54093;50.014;19.984;2023-12-20T13:00:39;4.98;82.23
67165;SHT31;54093;50.014;19.984;2023-12-20T13:10:00;5.10;81.59
67165;SHT31;54093;50.014;19.984;2023-12-20T13:19:21;5.14;81.96
67165;SHT31;54093;50.014;19.984;2023-12-20T13:28:42;5.11;81.70
67165;SHT31;54093;50.014;19.984;2023-12-20T13:38:03;5.06;82.20
67165;SHT31;54093;50.014;19.984;2023-12-20T13:47:24;5.17;80.58
67165;SHT31;54093;50.014;19.984;2023-12-20T13:56:45;5.10;79.76
67165;SHT31;54093;50.014;19.984;2023-12-20T14:06:06;5.06;80.08
67165;SHT31;54093;50.014;19.984;2023-12-20T14:15:27;5.07;80.37
67165;SHT31;54093;50.014;19.984;2023-12-20T14:24:48;5.13;80.26
67165;SHT31;54093;50.014;19.984;2023-12-20T14:34:10;5.17;79.57
67165;SHT31;54093;50.014;19.984;2023-12-20T14:43:31;5.00;79.94
67165;SHT31;54093;50.014;19.984;2023-12-20T14:52:52;4.98;79.38
67165;SHT31;54093;50.014;19.984;2023-12-20T15:02:15;5.03;79.17
67165;SHT31;54093;50.014;19.984;2023-12-20T15:11:36;4.96;79.55
67165;SHT31;54093;50.014;19.984;2023-12-20T15:20:57;5.01;79.25
67165;SHT31;54093;50.014;19.984;2023-12-20T15:30:19;5.00;79.14
67165;SHT31;54093;50.014;19.984;2023-12-20T15:39:43;5.06;78.27
67165;SHT31;54093;50.014;19.984;2023-12-20T15:49:04;5.08;77.86
67165;SHT31;54093;50.014;19.984;2023-12-20T15:58:25;4.97;77.62
67165;SHT31;54093;50.014;19.984;2023-12-20T16:07:47;5.04;77.31
67165;SHT31;54093;50.014;19.984;2023-12-20T16:17:08;4.90;77.67
67165;SHT31;54093;50.014;19.984;2023-12-20T16:26:29;4.79;78.25
67165;SHT31;54093;50.014;19.984;2023-12-20T16:35:50;4.81;77.81
67165;SHT31;54093;50.014;19.984;2023-12-20T16:45:12;4.80;77.62
67165;SHT31;54093;50.014;19.984;2023-12-20T16:54:34;4.84;77.02
67165;SHT31;54093;50.014;19.984;2023-12-20T17:03:55;4.87;76.82
67165;SHT31;54093;50.014;19.984;2023-12-20T17:13:16;4.83;76.73
67165;SHT31;54093;50.014;19.984;2023-12-20T17:22:37;4.80;75.89
67165;SHT31;54093;50.014;19.984;2023-12-20T17:31:58;4.84;75.17
67165;SHT31;54093;50.014;19.984;2023-12-20T17:41:22;4.80;74.66
67165;SHT31;54093;50.014;19.984;2023-12-20T17:50:44;4.80;74.53
67165;SHT31;54093;50.014;19.984;2023-12-20T18:00:13;4.68;74.68
67165;SHT31;54093;50.014;19.984;2023-12-20T18:09:38;4.79;73.73
67165;SHT31;54093;50.014;19.984;2023-12-20T18:19:15;4.86;73.29
67165;SHT31;54093;50.014;19.984;2023-12-20T18:28:37;4.84;73.43
67165;SHT31;54093;50.014;19.984;2023-12-20T18:37:58;4.79;73.77
67165;SHT31;54093;50.014;19.984;2023-12-20T18:47:19;4.76;74.10
67165;SHT31;54093;50.014;19.984;2023-12-20T18:56:40;4.72;73.44
67165;SHT31;54093;50.014;19.984;2023-12-20T19:06:03;4.73;72.85
67165;SHT31;54093;50.014;19.984;2023-12-20T19:15:24;4.81;71.71
67165;SHT31;54093;50.014;19.984;2023-12-20T19:24:46;4.96;70.92
67165;SHT31;54093;50.014;19.984;2023-12-20T19:34:17;5.03;70.42
67165;SHT31;54093;50.014;19.984;2023-12-20T19:43:38;5.06;70.24
67165;SHT31;54093;50.014;19.984;2023-12-20T19:53:03;5.03;69.93
67165;SHT31;54093;50.014;19.984;2023-12-20T20:02:26;5.04;69.05
67165;SHT31;54093;50.014;19.984;2023-12-20T20:11:48;5.13;68.08
67165;SHT31;54093;50.014;19.984;2023-12-20T20:21:10;5.27;67.34
67165;SHT31;54093;50.014;19.984;2023-12-20T20:30:32;5.13;67.99
67165;SHT31;54093;50.014;19.984;2023-12-20T20:39:53;5.18;67.63
67165;SHT31;54093;50.014;19.984;2023-12-20T20:49:14;5.06;68.03
67165;SHT31;54093;50.014;19.984;2023-12-20T20:58:36;5.10;68.16
67165;SHT31;54093;50.014;19.984;2023-12-20T21:07:58;5.08;68.22
67165;SHT31;54093;50.014;19.984;2023-12-20T21:17:19;5.06;68.29
67165;SHT31;54093;50.014;19.984;2023-12-20T21:26:40;4.94;68.08
67165;SHT31;54093;50.014;19.984;2023-12-20T21:36:01;5.11;67.19
67165;SHT31;54093;50.014;19.984;2023-12-20T21:45:23;5.21;67.00
67165;SHT31;54093;50.014;19.984;2023-12-20T21:54:44;5.03;67.77
67165;SHT31;54093;50.014;19.984;2023-12-20T22:04:05;5.06;67.82
67165;SHT31;54093;50.014;19.984;2023-12-20T22:13:26;5.11;67.66
67165;SHT31;54093;50.014;19.984;2023-12-20T22:22:51;5.11;68.08
67165;SHT31;54093;50.014;19.984;2023-12-20T22:32:12;5.10;68.16
67165;SHT31;54093;50.014;19.984;2023-12-20T22:41:34;5.10;68.79
67165;SHT31;54093;50.014;19.984;2023-12-20T22:50:56;5.17;68.68
67165;SHT31;54093;50.014;19.984;2023-12-20T23:00:17;5.11;69.02
67165;SHT31;54093;50.014;19.984;2023-12-20T23:09:42;5.21;68.70
67165;SHT31;54093;50.014;19.984;2023-12-20T23:19:03;5.28;68.57
67165;SHT31;54093;50.014;19.984;2023-12-20T23:28:24;5.38;68.56
67165;SHT31;54093;50.014;19.984;2023-12-20T23:37:45;5.30;69.00
67165;SHT31;54093;50.014;19.984;2023-12-20T23:47:07;5.37;68.73
67165;SHT31;54093;50.014;19.984;2023-12-20T23:56:28;5.37;68.78
